Time;durP1;ratioP1;P1;durP2;ratioP2;P2;SDS_P1;SDS_P2;PMS_P1;PMS_P2;Temp;Humidity;BMP_temperature;BMP_pressure;BME280_temperature;BME280_humidity;BME280_pressure;Samples;Min_cycle;Max_cycle;Signal;HPM_P1;HPM_P2
2023/06/15 00:02:46;;;;;;;;;;;;;;;;;;;;;
2023/06/15 00:05:25;;;;;;;4.72;2.50;;;16.40;93.50;;;;;;5089577;28;20044;-84
2023/06/15 00:07:54;;;;;;;3.03;2.45;;;16.60;93.70;;;;;;5073248;28;20040;-84
2023/06/15 00:10:22;;;;;;;3.38;2.85;;;16.30;93.80;;;;;;5088008;28;20051;-84
2023/06/15 00:12:48;;;;;;;6.75;2.50;;;16.30;94.00;;;;;;5071619;28;20040;-83
2023/06/15 00:15:15;;;;;;;4.40;2.65;;;16.30;94.20;;;;;;5070145;28;20090;-83
2023/06/15 00:17:42;;;;;;;12.90;2.72;;;16.50;94.60;;;;;;5070707;28;20142;-85
2023/06/15 00:20:08;;;;;;;4.10;2.50;;;15.90;95.00;;;;;;5074667;28;20077;-84
2023/06/15 00:22:38;;;;;;;3.47;2.60;;;16.10;95.30;;;;;;5064847;28;20435;-84
2023/06/15 00:25:11;;;;;;;3.75;2.88;;;16.30;95.10;;;;;;5055293;28;20048;-83
2023/06/15 00:27:37;;;;;;;3.95;2.50;;;16.10;95.20;;;;;;5088179;28;20050;-83
2023/06/15 00:30:09;;;;;;;4.63;2.50;;;16.10;95.40;;;;;;5071780;28;20063;-84
2023/06/15 00:32:34;;;;;;;5.95;2.60;;;16.00;95.60;;;;;;5063815;28;20048;-84
2023/06/15 00:35:00;;;;;;;2.88;2.50;;;16.00;95.80;;;;;;5088867;28;20449;-84
2023/06/15 00:37:26;;;;;;;3.70;2.75;;;16.00;96.10;;;;;;5087299;28;20157;-84
2023/06/15 00:39:51;;;;;;;4.80;2.78;;;16.00;96.60;;;;;;5085023;28;20036;-84
2023/06/15 00:42:18;;;;;;;4.68;2.88;;;15.90;96.50;;;;;;5071106;28;20032;-83
2023/06/15 00:44:43;;;;;;;4.93;2.65;;;16.00;96.80;;;;;;5062745;28;20135;-84
2023/06/15 00:47:09;;;;;;;3.25;2.58;;;16.20;96.90;;;;;;5051336;28;20132;-84
2023/06/15 00:49:35;;;;;;;3.28;2.90;;;16.00;97.10;;;;;;5069223;28;20404;-84
2023/06/15 00:52:02;;;;;;;3.65;2.92;;;15.80;97.30;;;;;;5084884;28;20083;-84
2023/06/15 00:54:29;;;;;;;8.13;2.90;;;15.80;97.40;;;;;;5087833;28;20040;-84
2023/06/15 00:56:56;;;;;;;5.35;2.92;;;15.70;97.60;;;;;;5088038;28;20461;-84
2023/06/15 00:59:22;;;;;;;5.00;3.03;;;15.70;98.10;;;;;;5088590;28;20495;-84
2023/06/15 01:01:48;;;;;;;4.57;2.90;;;15.60;98.40;;;;;;5069926;28;20040;-83
2023/06/15 01:04:16;;;;;;;5.55;3.03;;;15.60;98.60;;;;;;5070492;28;20499;-83
2023/06/15 01:06:51;;;;;;;3.50;2.75;;;15.60;98.90;;;;;;5088800;28;20051;-84
2023/06/15 01:09:21;;;;;;;2.83;2.63;;;15.60;99.00;;;;;;5087369;28;20392;-84
2023/06/15 01:11:55;;;;;;;5.80;3.45;;;15.50;99.00;;;;;;5086432;28;20055;-84
2023/06/15 01:14:27;;;;;;;5.38;3.00;;;15.50;99.20;;;;;;5069763;28;20059;-83
2023/06/15 01:16:57;;;;;;;;;;;15.50;99.40;;;;;;5087338;28;20044;-85
2023/06/15 01:19:32;;;;;;;4.88;2.83;;;15.40;99.90;;;;;;5088375;28;19920;-85
2023/06/15 01:22:14;;;;;;;4.93;3.03;;;15.40;99.40;;;;;;5087768;28;20144;-84
2023/06/15 01:24:44;;;;;;;5.82;2.97;;;15.80;99.70;;;;;;5068012;28;20495;-84
2023/06/15 01:27:11;;;;;;;7.72;3.10;;;15.30;99.70;;;;;;5086865;28;20044;-84
2023/06/15 01:29:41;;;;;;;4.07;2.60;;;15.30;99.90;;;;;;5088759;28;20059;-84
2023/06/15 01:32:07;;;;;;;4.20;2.90;;;15.30;99.90;;;;;;5087586;28;20050;-84
2023/06/15 01:34:33;;;;;;;4.18;2.97;;;15.30;99.90;;;;;;5071640;28;20044;-83
2023/06/15 01:36:58;;;;;;;8.32;2.97;;;15.30;99.90;;;;;;5071416;28;20051;-84
2023/06/15 01:39:24;;;;;;;5.68;2.88;;;15.20;99.90;;;;;;5084008;28;20040;-84
2023/06/15 01:41:50;;;;;;;5.90;3.40;;;15.20;99.90;;;;;;5086575;28;20044;-84
2023/06/15 01:44:16;;;;;;;4.72;2.78;;;15.20;99.90;;;;;;5087841;28;20052;-84
2023/06/15 01:46:42;;;;;;;4.88;3.05;;;15.20;99.90;;;;;;5088434;28;20191;-84
2023/06/15 01:49:08;;;;;;;6.55;3.30;;;15.20;99.90;;;;;;5086296;28;20471;-84
2023/06/15 01:51:34;;;;;;;6.07;3.20;;;15.10;99.90;;;;;;5087686;28;20116;-83
2023/06/15 01:53:59;;;;;;;5.00;2.75;;;15.30;99.90;;;;;;5089569;28;20380;-83
2023/06/15 01:56:25;;;;;;;5.45;3.20;;;15.10;99.90;;;;;;5088043;28;20060;-84
2023/06/15 01:58:51;;;;;;;4.65;2.85;;;15.00;99.90;;;;;;5089552;28;20070;-84
2023/06/15 02:01:16;;;;;;;3.60;2.53;;;15.00;99.90;;;;;;5088549;28;20036;-84
2023/06/15 02:03:42;;;;;;;5.13;3.35;;;15.00;99.90;;;;;;5088309;28;20458;-84
2023/06/15 02:06:08;;;;;;;5.20;3.75;;;15.00;99.90;;;;;;5086023;28;20048;-85
2023/06/15 02:08:33;;;;;;;3.92;3.40;;;14.90;99.90;;;;;;5089395;28;20036;-84
2023/06/15 02:11:00;;;;;;;4.65;3.60;;;14.90;99.90;;;;;;5071081;28;20455;-85
2023/06/15 02:13:26;;;;;;;5.15;3.20;;;14.90;99.90;;;;;;5087471;28;20544;-85
2023/06/15 02:15:51;;;;;;;4.40;3.30;;;15.00;99.90;;;;;;5086031;28;20040;-85
2023/06/15 02:18:18;;;;;;;6.90;3.60;;;14.80;99.90;;;;;;5088152;28;20415;-84
2023/06/15 02:20:46;;;;;;;4.75;3.20;;;14.80;99.90;;;;;;5086785;28;20055;-85
2023/06/15 02:23:12;;;;;;;4.38;3.55;;;14.80;99.90;;;;;;5088168;28;20048;-84
2023/06/15 02:25:38;;;;;;;5.13;3.00;;;14.80;99.90;;;;;;5081478;28;20102;-84
2023/06/15 02:28:04;;;;;;;5.70;3.33;;;14.70;99.90;;;;;;5081518;28;20044;-85
2023/06/15 02:30:30;;;;;;;5.10;3.63;;;14.70;99.90;;;;;;5091288;28;20051;-85
2023/06/15 02:33:00;;;;;;;7.28;3.70;;;14.70;99.90;;;;;;5090684;28;20051;-84
2023/06/15 02:35:25;;;;;;;12.75;4.50;;;14.60;99.90;;;;;;5089952;28;20091;-84
2023/06/15 02:37:51;;;;;;;4.90;3.50;;;14.60;99.90;;;;;;5108222;28;20097;-83
2023/06/15 02:40:18;;;;;;;4.32;3.90;;;14.20;99.90;;;;;;5073797;28;20040;-83
2023/06/15 02:42:43;;;;;;;6.47;4.07;;;14.60;99.90;;;;;;5091318;28;20787;-83
2023/06/15 02:45:09;;;;;;;4.47;3.63;;;14.50;99.90;;;;;;5066072;28;20125;-84
2023/06/15 02:47:37;;;;;;;5.30;3.63;;;14.50;99.90;;;;;;5071376;28;20096;-82
2023/06/15 02:50:04;;;;;;;7.65;3.83;;;14.50;99.90;;;;;;5073053;28;20051;-83
2023/06/15 02:52:30;;;;;;;5.85;4.03;;;14.50;99.90;;;;;;5090803;28;20048;-83
2023/06/15 02:54:59;;;;;;;6.68;3.90;;;14.50;99.90;;;;;;5091600;28;20158;-84
2023/06/15 02:57:25;;;;;;;7.38;4.05;;;14.40;99.90;;;;;;5091396;28;20062;-83
2023/06/15 02:59:51;;;;;;;4.85;4.07;;;14.50;99.90;;;;;;5058088;28;20049;-84
2023/06/15 03:02:20;;;;;;;5.63;3.97;;;14.40;99.90;;;;;;5088899;28;20044;-84
2023/06/15 03:04:46;;;;;;;6.03;4.13;;;14.40;99.90;;;;;;5073644;28;20052;-85
2023/06/15 03:07:16;;;;;;;8.48;4.05;;;14.40;99.90;;;;;;5091069;28;20135;-83
2023/06/15 03:09:48;;;;;;;5.88;3.60;;;14.40;99.90;;;;;;5090556;28;20048;-84
2023/06/15 03:12:14;;;;;;;5.82;3.72;;;14.40;99.90;;;;;;5091003;28;20039;-84
2023/06/15 03:14:44;;;;;;;4.22;3.80;;;14.30;99.90;;;;;;5073548;28;20387;-84
2023/06/15 03:17:13;;;;;;;6.10;3.85;;;14.30;99.90;;;;;;5083303;28;20415;-84
2023/06/15 03:19:43;;;;;;;9.57;3.85;;;14.30;99.90;;;;;;5079464;28;20130;-85
2023/06/15 03:22:09;;;;;;;5.45;3.38;;;14.30;99.90;;;;;;5091340;28;20056;-84
2023/06/15 03:24:35;;;;;;;4.13;3.33;;;14.30;99.90;;;;;;5090841;28;20122;-84
2023/06/15 03:27:03;;;;;;;5.70;3.83;;;14.50;99.90;;;;;;5089934;28;20047;-84
2023/06/15 03:29:31;;;;;;;9.98;3.97;;;14.30;99.90;;;;;;5091370;28;20411;-84
2023/06/15 03:32:00;;;;;;;4.20;3.80;;;14.40;99.90;;;;;;5070427;28;20048;-84
2023/06/15 03:34:26;;;;;;;7.78;4.18;;;14.20;99.90;;;;;;5089761;28;20032;-84
2023/06/15 03:36:52;;;;;;;3.88;3.50;;;14.20;99.90;;;;;;5073016;28;20101;-84
2023/06/15 03:39:18;;;;;;;4.75;4.20;;;14.20;99.90;;;;;;5072923;28;20037;-83
2023/06/15 03:41:44;;;;;;;6.25;4.00;;;14.10;99.90;;;;;;5073975;28;20048;-84
2023/06/15 03:44:10;;;;;;;5.18;3.92;;;14.10;99.90;;;;;;5089689;28;20076;-83
2023/06/15 03:46:36;;;;;;;6.03;4.22;;;14.10;99.90;;;;;;5085701;28;20125;-84
2023/06/15 03:49:01;;;;;;;5.30;3.88;;;14.10;99.90;;;;;;5087941;28;20417;-84
2023/06/15 03:51:27;;;;;;;7.35;3.97;;;14.10;99.90;;;;;;5078882;28;20862;-84
2023/06/15 03:53:53;;;;;;;5.72;3.65;;;14.20;99.90;;;;;;5088385;28;20047;-85
2023/06/15 03:56:19;;;;;;;11.00;4.40;;;14.20;99.90;;;;;;5089604;28;20051;-83
2023/06/15 03:58:44;;;;;;;5.82;4.38;;;14.20;99.90;;;;;;5089958;28;20085;-84
2023/06/15 04:01:12;;;;;;;7.90;4.07;;;14.20;99.90;;;;;;5090189;28;20097;-83
2023/06/15 04:03:39;;;;;;;5.75;4.90;;;14.20;99.90;;;;;;5089854;28;20051;-84
2023/06/15 04:06:05;;;;;;;5.63;4.03;;;14.20;99.90;;;;;;5070439;28;20119;-84
2023/06/15 04:08:37;;;;;;;7.70;4.68;;;14.20;99.90;;;;;;5088502;28;20058;-84
2023/06/15 04:11:04;;;;;;;4.25;3.85;;;14.20;99.90;;;;;;5088426;28;20637;-84
2023/06/15 04:13:30;;;;;;;5.60;3.97;;;14.20;99.90;;;;;;5089196;28;20399;-85
2023/06/15 04:15:55;;;;;;;5.63;4.50;;;14.20;99.90;;;;;;5071704;28;20047;-85
2023/06/15 04:18:22;;;;;;;6.50;4.30;;;14.20;99.90;;;;;;5070731;28;20396;-85
2023/06/15 04:20:48;;;;;;;7.25;4.20;;;14.30;99.90;;;;;;5088538;28;20078;-83
2023/06/15 04:23:14;;;;;;;5.07;4.57;;;14.30;99.90;;;;;;5088566;28;20507;-83
2023/06/15 04:25:43;;;;;;;6.75;4.38;;;14.30;99.90;;;;;;5087657;28;20044;-83
2023/06/15 04:28:10;;;;;;;8.70;5.00;;;14.40;99.90;;;;;;5088704;28;20055;-83
2023/06/15 04:30:40;;;;;;;5.10;4.20;;;14.60;99.90;;;;;;5087885;28;20036;-84
2023/06/15 04:33:07;;;;;;;5.78;4.20;;;14.50;99.90;;;;;;5088920;28;20476;-85
2023/06/15 04:35:34;;;;;;;7.72;4.60;;;14.60;99.90;;;;;;5087247;28;20556;-84
2023/06/15 04:38:04;;;;;;;5.38;4.55;;;14.60;99.90;;;;;;5088273;28;20048;-84
2023/06/15 04:40:31;;;;;;;5.88;4.38;;;14.70;99.90;;;;;;5069534;28;20045;-84
2023/06/15 04:43:02;;;;;;;6.82;4.13;;;15.20;99.90;;;;;;5087005;28;20076;-84
2023/06/15 04:45:29;;;;;;;5.55;4.38;;;14.80;99.90;;;;;;5088747;28;20048;-84
2023/06/15 04:47:58;;;;;;;6.22;4.38;;;14.90;99.90;;;;;;5088081;28;20087;-85
2023/06/15 04:50:24;;;;;;;7.88;4.10;;;14.90;99.90;;;;;;5088100;28;20123;-85
2023/06/15 04:52:50;;;;;;;6.68;4.10;;;15.40;99.90;;;;;;5071363;28;20128;-85
2023/06/15 04:55:16;;;;;;;5.07;3.95;;;15.60;99.90;;;;;;5088593;28;20506;-84
2023/06/15 04:57:41;;;;;;;6.15;4.00;;;15.10;99.90;;;;;;5088412;28;20059;-84
2023/06/15 05:00:09;;;;;;;7.25;4.18;;;15.50;99.90;;;;;;5070943;28;20055;-84
2023/06/15 05:02:35;;;;;;;7.07;4.30;;;15.40;99.90;;;;;;5082002;28;20131;-84
2023/06/15 05:05:02;;;;;;;5.72;4.20;;;15.40;99.90;;;;;;5079029;28;20127;-85
2023/06/15 05:07:28;;;;;;;7.10;4.30;;;15.50;99.90;;;;;;5086687;28;20078;-83
2023/06/15 05:09:54;;;;;;;7.65;4.25;;;15.60;99.90;;;;;;5070976;28;20080;-84
2023/06/15 05:12:20;;;;;;;9.32;4.70;;;15.70;99.90;;;;;;5070580;28;20051;-85
2023/06/15 05:14:46;;;;;;;5.65;3.83;;;15.80;99.90;;;;;;5089813;28;20040;-84
2023/06/15 05:17:12;;;;;;;4.45;3.80;;;15.80;99.90;;;;;;5070496;28;20090;-84
2023/06/15 05:19:38;;;;;;;6.50;4.07;;;16.00;99.90;;;;;;5082379;28;20055;-85
2023/06/15 05:22:05;;;;;;;6.70;4.00;;;16.20;99.90;;;;;;5085715;28;20109;-87
2023/06/15 05:24:30;;;;;;;5.35;3.70;;;16.30;99.90;;;;;;5086838;28;20050;-85
2023/06/15 05:26:56;;;;;;;4.57;3.40;;;16.40;99.90;;;;;;5087132;28;20040;-87
2023/06/15 05:29:22;;;;;;;8.38;3.67;;;16.70;99.90;;;;;;5086995;28;20116;-85
2023/06/15 05:31:48;;;;;;;3.63;3.28;;;17.40;99.90;;;;;;5087230;28;20076;-85
2023/06/15 05:34:14;;;;;;;6.82;3.03;;;18.80;98.20;;;;;;5079417;28;20044;-85
2023/06/15 05:36:39;;;;;;;4.85;3.50;;;19.50;95.10;;;;;;5086838;28;20391;-87
2023/06/15 05:39:06;;;;;;;7.03;3.22;;;20.40;92.50;;;;;;5086275;28;20419;-86
2023/06/15 05:41:31;;;;;;;3.92;3.17;;;21.10;90.40;;;;;;5069082;28;20044;-86
2023/06/15 05:43:58;;;;;;;3.88;3.20;;;21.50;86.10;;;;;;5086434;28;20139;-85
2023/06/15 05:46:24;;;;;;;3.90;3.17;;;22.40;82.10;;;;;;5087736;28;20052;-87
2023/06/15 05:48:50;;;;;;;3.88;3.22;;;23.10;79.30;;;;;;5086946;28;20114;-85
2023/06/15 05:51:16;;;;;;;5.43;2.85;;;23.10;76.70;;;;;;5086645;28;20179;-85
2023/06/15 05:53:42;;;;;;;5.00;2.97;;;23.40;74.50;;;;;;5087576;28;20063;-87
2023/06/15 05:56:08;;;;;;;5.85;2.47;;;23.90;73.00;;;;;;5086372;28;20054;-86
2023/06/15 05:58:34;;;;;;;3.85;2.65;;;23.80;70.80;;;;;;5088421;28;20047;-86
2023/06/15 06:00:59;;;;;;;6.78;2.60;;;24.20;70.00;;;;;;5077615;28;20037;-87
2023/06/15 06:03:25;;;;;;;5.65;3.10;;;24.50;68.50;;;;;;5065610;28;20043;-83
2023/06/15 06:05:50;;;;;;;3.05;2.75;;;24.60;67.10;;;;;;5066762;28;20162;-86
2023/06/15 06:08:18;;;;;;;2.90;2.60;;;24.70;65.60;;;;;;5066478;28;20045;-86
2023/06/15 06:10:44;;;;;;;5.28;2.70;;;24.80;64.90;;;;;;5060930;28;20076;-86
2023/06/15 06:13:10;;;;;;;3.22;2.33;;;25.10;64.00;;;;;;5085417;28;20106;-86
2023/06/15 06:15:35;;;;;;;4.07;2.88;;;25.20;63.30;;;;;;5086217;28;20051;-86
2023/06/15 06:18:02;;;;;;;4.72;2.40;;;25.40;62.60;;;;;;5086327;28;20032;-84
2023/06/15 06:20:28;;;;;;;4.05;2.92;;;25.70;62.00;;;;;;5086072;28;20415;-87
2023/06/15 06:22:53;;;;;;;7.03;2.97;;;26.10;61.10;;;;;;5086843;28;20051;-85
2023/06/15 06:25:19;;;;;;;3.33;2.70;;;25.90;60.10;;;;;;5069678;28;20075;-85
2023/06/15 06:27:44;;;;;;;4.45;2.75;;;25.60;59.60;;;;;;5068845;28;20642;-86
2023/06/15 06:30:10;;;;;;;2.65;2.30;;;25.80;59.60;;;;;;5085942;28;20491;-86
2023/06/15 06:32:36;;;;;;;3.22;2.42;;;25.90;58.90;;;;;;5086348;28;20083;-85
2023/06/15 06:35:03;;;;;;;5.13;2.50;;;26.20;57.90;;;;;;5085321;28;20044;-85
2023/06/15 06:37:28;;;;;;;5.07;2.47;;;26.10;56.70;;;;;;5085757;28;20104;-86
2023/06/15 06:39:54;;;;;;;4.85;3.05;;;26.00;56.50;;;;;;5085613;28;20044;-84
2023/06/15 06:42:20;;;;;;;5.13;2.90;;;25.50;56.60;;;;;;5067983;28;20499;-85
2023/06/15 06:44:45;;;;;;;4.05;2.58;;;24.80;57.80;;;;;;5085591;28;20036;-85
2023/06/15 06:47:11;;;;;;;3.30;2.47;;;23.90;59.30;;;;;;5086322;28;20040;-85
2023/06/15 06:49:36;;;;;;;2.90;2.60;;;23.30;60.60;;;;;;5068802;28;20058;-85
2023/06/15 06:52:03;;;;;;;4.00;2.65;;;23.40;61.50;;;;;;5068969;28;20056;-84
2023/06/15 06:54:29;;;;;;;3.40;2.22;;;22.80;61.40;;;;;;5085894;28;20045;-84
2023/06/15 06:56:55;;;;;;;4.60;2.83;;;22.70;61.10;;;;;;5085709;28;20048;-86
2023/06/15 06:59:20;;;;;;;3.55;2.83;;;22.30;61.50;;;;;;5070025;28;20056;-86
2023/06/15 07:01:46;;;;;;;10.13;2.60;;;22.50;62.40;;;;;;5086869;28;20040;-85
2023/06/15 07:04:12;;;;;;;2.95;2.47;;;22.40;62.50;;;;;;5085990;28;20048;-86
2023/06/15 07:06:37;;;;;;;4.15;2.30;;;22.50;62.80;;;;;;5086873;28;20040;-84
2023/06/15 07:09:03;;;;;;;3.42;2.75;;;22.60;62.70;;;;;;5088654;28;20055;-84
2023/06/15 07:11:28;;;;;;;3.67;2.70;;;22.60;62.50;;;;;;5086821;28;20048;-84
2023/06/15 07:13:54;;;;;;;4.28;2.67;;;22.70;62.10;;;;;;5086501;28;20048;-83
2023/06/15 07:16:19;;;;;;;2.90;2.65;;;22.70;61.20;;;;;;5089940;28;20055;-85
2023/06/15 07:18:45;;;;;;;4.30;2.85;;;22.70;60.30;;;;;;5072172;28;20048;-84
2023/06/15 07:21:11;;;;;;;4.60;2.63;;;22.80;59.80;;;;;;5089338;28;20054;-84
2023/06/15 07:23:36;;;;;;;5.43;2.38;;;22.80;59.30;;;;;;5072493;28;20093;-85
2023/06/15 07:26:02;;;;;;;3.50;2.40;;;22.80;59.30;;;;;;5090742;28;20297;-85
2023/06/15 07:28:28;;;;;;;2.78;2.58;;;22.90;59.00;;;;;;5089454;28;20040;-85
2023/06/15 07:30:53;;;;;;;5.93;2.70;;;22.70;59.00;;;;;;5089040;28;20052;-86
2023/06/15 07:33:19;;;;;;;5.30;2.70;;;23.00;59.00;;;;;;5088372;28;20040;-85
2023/06/15 07:35:46;;;;;;;5.25;2.40;;;23.10;58.50;;;;;;5063424;28;20186;-85
2023/06/15 07:38:13;;;;;;;4.53;2.50;;;23.00;58.20;;;;;;5067903;28;20098;-85
2023/06/15 07:40:39;;;;;;;3.65;2.50;;;23.10;58.40;;;;;;5068395;28;20055;-86
2023/06/15 07:43:04;;;;;;;2.97;2.20;;;23.20;57.90;;;;;;5073561;28;20048;-86
2023/06/15 07:45:30;;;;;;;4.22;2.60;;;23.20;57.40;;;;;;5087551;28;20044;-87
2023/06/15 07:47:55;;;;;;;4.45;2.40;;;23.30;57.60;;;;;;5086182;28;20052;-86
2023/06/15 07:50:21;;;;;;;3.83;2.50;;;23.50;57.00;;;;;;5087148;28;20051;-88
2023/06/15 07:52:48;;;;;;;3.05;2.28;;;23.50;56.50;;;;;;5088287;28;20152;-88
2023/06/15 07:55:14;;;;;;;4.22;2.45;;;23.60;56.50;;;;;;5089674;28;20055;-86
2023/06/15 07:57:39;;;;;;;4.30;2.25;;;23.40;55.60;;;;;;5072583;28;20761;-86
2023/06/15 08:00:06;;;;;;;4.03;2.42;;;23.70;55.40;;;;;;5087948;28;20047;-85
2023/06/15 08:02:32;;;;;;;4.20;2.35;;;23.80;55.70;;;;;;5087388;28;20052;-86
2023/06/15 08:04:57;;;;;;;4.68;2.40;;;23.90;55.20;;;;;;5086607;28;20044;-86
2023/06/15 08:07:23;;;;;;;4.00;2.05;;;23.80;54.60;;;;;;5085539;28;20040;-86
2023/06/15 08:09:48;;;;;;;4.93;2.58;;;23.70;54.20;;;;;;5075099;28;20056;-87
2023/06/15 08:12:14;;;;;;;3.42;2.45;;;24.00;54.20;;;;;;5084912;28;20052;-87
2023/06/15 08:14:40;;;;;;;3.58;2.30;;;23.90;54.40;;;;;;5089440;28;20044;-88
2023/06/15 08:17:05;;;;;;;4.88;2.50;;;24.00;54.10;;;;;;5088840;28;20055;-84
2023/06/15 08:19:31;;;;;;;3.00;2.35;;;24.10;53.70;;;;;;5070214;28;20496;-87
2023/06/15 08:21:57;;;;;;;2.75;2.35;;;24.30;53.50;;;;;;5086898;28;20385;-86
2023/06/15 08:24:23;;;;;;;4.97;2.20;;;24.40;53.80;;;;;;5089255;28;20074;-87
2023/06/15 08:26:48;;;;;;;2.90;2.10;;;24.70;53.80;;;;;;5086828;28;20055;-87
2023/06/15 08:29:15;;;;;;;5.00;2.38;;;24.60;52.90;;;;;;5071742;28;20411;-86
2023/06/15 08:31:40;;;;;;;2.95;2.47;;;24.60;52.50;;;;;;5088940;28;20054;-87
2023/06/15 08:34:09;;;;;;;3.70;2.25;;;24.90;52.30;;;;;;5083675;28;20041;-86
2023/06/15 08:36:35;;;;;;;4.85;2.40;;;24.80;51.90;;;;;;5085884;28;20044;-85
2023/06/15 08:39:01;;;;;;;2.95;2.20;;;25.00;51.70;;;;;;5086406;28;20058;-86
2023/06/15 08:41:27;;;;;;;4.57;2.50;;;25.00;51.50;;;;;;5101438;28;20044;-86
2023/06/15 08:43:53;;;;;;;3.30;2.60;;;25.00;51.30;;;;;;5088321;28;20131;-85
2023/06/15 08:46:21;;;;;;;2.50;2.30;;;25.10;51.30;;;;;;5087441;28;20178;-86
2023/06/15 08:48:50;;;;;;;4.97;2.97;;;25.20;51.30;;;;;;5088981;28;20109;-86
2023/06/15 08:51:16;;;;;;;3.15;2.40;;;25.10;50.90;;;;;;5085676;28;20070;-86
2023/06/15 08:53:43;;;;;;;3.50;2.33;;;25.10;50.70;;;;;;5074837;28;20187;-85
2023/06/15 08:56:13;;;;;;;3.67;2.35;;;25.10;50.20;;;;;;5067190;28;20056;-83
2023/06/15 08:58:41;;;;;;;4.25;2.60;;;25.10;50.40;;;;;;5086401;28;20062;-84
2023/06/15 09:01:07;;;;;;;4.50;2.67;;;25.00;50.00;;;;;;5087477;28;20048;-86
2023/06/15 09:03:34;;;;;;;3.95;2.13;;;25.00;50.10;;;;;;5071643;28;20051;-86
2023/06/15 09:06:00;;;;;;;2.47;2.28;;;25.10;50.90;;;;;;5069958;28;20040;-86
2023/06/15 09:08:25;;;;;;;4.28;2.28;;;24.90;50.00;;;;;;5087934;28;20086;-85
2023/06/15 09:11:04;;;;;;;4.38;2.40;;;25.00;50.30;;;;;;5086858;28;20055;-86
2023/06/15 09:13:32;;;;;;;3.58;2.42;;;25.20;50.40;;;;;;5087530;28;20040;-85
2023/06/15 09:15:59;;;;;;;4.50;2.22;;;25.10;50.10;;;;;;5086751;28;20517;-86
2023/06/15 09:18:28;;;;;;;3.10;2.28;;;25.00;50.00;;;;;;5071094;28;20044;-86
2023/06/15 09:20:59;;;;;;;5.32;2.45;;;25.20;50.00;;;;;;5087862;28;20104;-85
2023/06/15 09:23:25;;;;;;;;;;;25.40;49.40;;;;;;5088035;28;20080;-85
2023/06/15 09:25:52;;;;;;;3.88;2.50;;;25.40;49.20;;;;;;5067353;28;20004;-85
2023/06/15 09:28:22;;;;;;;4.82;2.40;;;25.20;49.80;;;;;;5069351;28;20044;-87
2023/06/15 09:30:52;;;;;;;4.97;2.70;;;25.00;49.50;;;;;;5087644;28;20059;-86
2023/06/15 09:33:19;;;;;;;4.97;2.78;;;25.30;50.40;;;;;;5085437;28;20066;-85
2023/06/15 09:36:03;;;;;;;3.25;2.22;;;25.30;48.90;;;;;;5085086;28;20044;-84
2023/06/15 09:38:41;;;;;;;5.20;2.30;;;25.30;47.50;;;;;;5086608;28;20067;-85
2023/06/15 09:41:07;;;;;;;3.35;2.40;;;25.30;48.80;;;;;;5087889;28;20894;-83
2023/06/15 09:43:34;;;;;;;4.25;2.35;;;25.50;48.60;;;;;;5083598;28;20123;-84
2023/06/15 09:46:11;;;;;;;4.25;2.30;;;25.60;47.60;;;;;;5086554;28;20695;-85
2023/06/15 09:48:37;;;;;;;4.88;2.15;;;25.70;47.40;;;;;;5083389;28;20055;-85
2023/06/15 09:51:03;;;;;;;4.13;2.70;;;25.90;47.30;;;;;;5087235;28;20067;-85
2023/06/15 09:53:30;;;;;;;4.72;2.20;;;25.50;46.80;;;;;;5087814;28;20067;-84
2023/06/15 09:55:58;;;;;;;2.90;2.30;;;25.30;46.90;;;;;;5085690;28;20101;-86
2023/06/15 09:58:23;;;;;;;4.32;2.70;;;25.20;47.10;;;;;;5068850;28;20036;-85
2023/06/15 10:00:49;;;;;;;7.38;2.58;;;25.20;46.90;;;;;;5080936;28;20071;-85
2023/06/15 10:03:19;;;;;;;3.17;2.70;;;25.50;46.90;;;;;;5078914;28;20139;-85
2023/06/15 10:05:47;;;;;;;3.72;2.60;;;25.50;46.40;;;;;;5085702;28;20044;-85
2023/06/15 10:08:16;;;;;;;3.35;2.55;;;25.80;45.80;;;;;;5083581;28;20043;-86
2023/06/15 10:10:44;;;;;;;5.32;2.80;;;25.80;45.90;;;;;;5085054;28;20085;-84
2023/06/15 10:13:20;;;;;;;2.30;2.10;;;25.80;45.60;;;;;;5086360;28;20169;-86
2023/06/15 10:15:52;;;;;;;2.80;2.60;;;26.10;46.50;;;;;;5084862;28;20829;-85
2023/06/15 10:18:20;;;;;;;4.28;2.50;;;25.90;45.60;;;;;;5085607;28;20039;-85
2023/06/15 10:20:52;;;;;;;3.72;2.38;;;25.80;44.60;;;;;;5086182;28;20411;-85
2023/06/15 10:23:23;;;;;;;3.30;2.10;;;25.90;44.30;;;;;;5089039;28;20135;-85
2023/06/15 10:25:51;;;;;;;2.42;2.22;;;25.90;44.40;;;;;;5085437;28;20550;-86
2023/06/15 10:28:23;;;;;;;3.97;2.58;;;25.70;43.80;;;;;;5084693;28;20123;-87
2023/06/15 10:31:15;;;;;;;3.03;2.30;;;25.70;44.30;;;;;;5087173;28;20051;-85
2023/06/15 10:33:52;;;;;;;3.03;2.53;;;25.80;44.20;;;;;;5085255;28;20530;-86
2023/06/15 10:36:23;;;;;;;3.47;2.40;;;25.90;44.40;;;;;;5086484;28;20059;-87
2023/06/15 10:38:59;;;;;;;5.35;2.42;;;25.90;44.80;;;;;;5083600;28;20052;-87
2023/06/15 10:41:26;;;;;;;2.92;2.60;;;26.10;44.50;;;;;;5066526;28;20040;-85
2023/06/15 10:44:03;;;;;;;3.13;2.30;;;26.00;44.50;;;;;;5085127;28;20474;-88
2023/06/15 10:46:30;;;;;;;3.20;2.47;;;25.90;44.20;;;;;;5083661;28;20044;-86
2023/06/15 10:49:02;;;;;;;4.55;2.70;;;25.90;44.40;;;;;;5085945;28;20064;-84
2023/06/15 10:51:29;;;;;;;2.78;2.53;;;26.00;42.40;;;;;;5086289;28;20113;-85
2023/06/15 10:53:56;;;;;;;3.83;2.40;;;25.70;42.60;;;;;;5090735;28;20059;-83
2023/06/15 10:56:22;;;;;;;3.83;2.45;;;25.90;42.40;;;;;;5093379;28;20036;-82
2023/06/15 10:58:53;;;;;;;4.57;2.20;;;26.10;42.30;;;;;;5091115;28;20048;-83
2023/06/15 11:01:22;;;;;;;3.10;2.45;;;25.90;41.00;;;;;;5074812;28;20040;-84
2023/06/15 11:03:48;;;;;;;4.03;2.50;;;25.90;40.90;;;;;;5087703;28;20044;-83
2023/06/15 11:06:21;;;;;;;3.88;2.20;;;25.90;41.20;;;;;;5091999;28;20044;-83
2023/06/15 11:08:52;;;;;;;3.33;2.20;;;26.10;40.80;;;;;;5090270;28;20056;-84
2023/06/15 11:11:33;;;;;;;2.60;2.40;;;26.10;40.40;;;;;;5088300;28;20047;-83
2023/06/15 11:14:02;;;;;;;2.60;2.40;;;26.10;40.50;;;;;;5090646;28;20055;-83
2023/06/15 11:16:38;;;;;;;2.78;2.13;;;26.20;40.50;;;;;;5090449;28;20419;-82
2023/06/15 11:19:10;;;;;;;4.40;2.78;;;26.10;40.40;;;;;;5089186;28;20066;-83
2023/06/15 11:21:50;;;;;;;3.78;2.40;;;26.40;40.80;;;;;;5088142;28;20111;-83
2023/06/15 11:24:19;;;;;;;2.90;2.40;;;26.40;41.30;;;;;;5089576;28;20086;-83
2023/06/15 11:26:48;;;;;;;4.55;2.70;;;26.50;40.80;;;;;;5091229;28;20058;-83
2023/06/15 11:29:22;;;;;;;3.53;2.25;;;26.70;41.20;;;;;;5090630;28;20051;-83
2023/06/15 11:31:49;;;;;;;5.18;2.70;;;26.50;40.20;;;;;;5090447;28;20089;-83
2023/06/15 11:34:15;;;;;;;3.35;2.30;;;26.50;40.80;;;;;;5090283;28;20040;-83
2023/06/15 11:36:41;;;;;;;3.47;2.40;;;26.60;40.70;;;;;;5091398;28;20066;-83
2023/06/15 11:39:20;;;;;;;3.65;2.40;;;26.60;40.60;;;;;;5091150;28;20119;-84
2023/06/15 11:41:50;;;;;;;3.97;2.58;;;26.60;40.90;;;;;;5075908;28;20064;-83
2023/06/15 11:44:16;;;;;;;3.97;2.58;;;26.70;41.20;;;;;;5092602;28;20048;-83
2023/06/15 11:46:42;;;;;;;3.25;2.67;;;26.70;41.60;;;;;;5078965;28;20048;-83
2023/06/15 11:49:11;;;;;;;4.25;2.45;;;26.70;41.70;;;;;;5093155;28;20535;-83
2023/06/15 11:51:41;;;;;;;3.20;2.42;;;26.70;41.90;;;;;;5074819;28;20051;-83
2023/06/15 11:54:10;;;;;;;2.92;2.28;;;26.80;41.70;;;;;;5091601;28;20035;-83
2023/06/15 11:56:43;;;;;;;5.80;2.45;;;26.90;41.40;;;;;;5093169;28;20052;-83
2023/06/15 11:59:09;;;;;;;3.03;2.22;;;26.80;41.10;;;;;;5090468;28;20120;-84
2023/06/15 12:01:36;;;;;;;5.90;2.30;;;26.50;40.90;;;;;;5089801;28;20044;-84
2023/06/15 12:04:02;;;;;;;2.88;2.50;;;26.80;40.90;;;;;;5088265;28;20072;-84
2023/06/15 12:06:27;;;;;;;2.95;2.50;;;27.10;40.80;;;;;;5090253;28;20074;-83
2023/06/15 12:08:55;;;;;;;3.35;2.60;;;27.00;40.50;;;;;;5090205;28;20040;-84
2023/06/15 12:11:21;;;;;;;2.72;2.38;;;26.90;41.20;;;;;;5090723;28;20630;-83
2023/06/15 12:13:47;;;;;;;4.00;2.50;;;26.90;41.30;;;;;;5092506;28;20067;-82
2023/06/15 12:16:14;;;;;;;2.90;2.25;;;27.10;41.00;;;;;;5063160;28;20503;-82
2023/06/15 12:18:40;;;;;;;4.10;2.63;;;27.20;40.90;;;;;;5090268;28;20044;-83
2023/06/15 12:21:05;;;;;;;3.90;2.90;;;27.20;40.60;;;;;;5087848;28;20047;-84
2023/06/15 12:23:33;;;;;;;3.22;2.47;;;27.10;40.30;;;;;;5090293;28;20047;-84
2023/06/15 12:26:03;;;;;;;3.55;2.30;;;27.10;40.40;;;;;;5088487;28;20040;-83
2023/06/15 12:28:31;;;;;;;2.78;2.47;;;27.10;40.70;;;;;;5090509;28;20279;-84
2023/06/15 12:31:05;;;;;;;3.63;2.28;;;27.20;40.70;;;;;;5088925;28;20069;-84
2023/06/15 12:33:38;;;;;;;3.33;2.30;;;27.40;40.20;;;;;;5088351;28;20047;-84
2023/06/15 12:36:11;;;;;;;4.38;2.38;;;27.40;39.80;;;;;;5085333;28;20047;-83
2023/06/15 12:38:37;;;;;;;2.88;2.55;;;27.50;40.00;;;;;;5073111;28;20082;-84
2023/06/15 12:41:03;;;;;;;4.15;2.65;;;27.30;39.90;;;;;;5089268;28;20151;-84
2023/06/15 12:43:30;;;;;;;5.63;2.80;;;27.10;40.10;;;;;;5092057;28;20142;-84
2023/06/15 12:45:56;;;;;;;2.60;2.40;;;27.00;40.90;;;;;;5091964;28;20040;-83
2023/06/15 12:48:22;;;;;;;3.05;2.65;;;27.00;41.10;;;;;;5090505;28;20059;-84
2023/06/15 12:50:50;;;;;;;3.65;2.50;;;27.10;40.70;;;;;;5087792;28;20412;-83